Time;durP1;ratioP1;P1;durP2;ratioP2;P2;SDS_P1;SDS_P2;PMS_P1;PMS_P2;Temp;Humidity;BMP_temperature;BMP_pressure;BME280_temperature;BME280_humidity;BME280_pressure;Samples;Min_cycle;Max_cycle;Signal;HPM_P1;HPM_P2
2023/02/07 00:01:26;;;;;;;;;;;;;;;;;;;;;
2023/02/07 00:03:59;;;;;;;38.67;28.13;;;;;;;;;;4702588;30;20426;-83
2023/02/07 00:22:34;;;;;;;37.17;28.55;;;;;;;;;;4982971;28;20405;-83
2023/02/07 00:31:22;;;;;;;33.97;26.23;;;;;;;;;;4950739;28;20425;-83
2023/02/07 00:33:53;;;;;;;34.15;25.38;;;;;;;;;;5003715;28;20458;-82
2023/02/07 00:36:26;;;;;;;34.58;26.73;;;;;;;;;;5038957;28;20825;-82
2023/02/07 00:39:39;;;;;;;;;;;;;;;;;;;;;
2023/02/07 00:42:11;;;;;;;36.13;27.15;;;;;;;;;;5026624;28;20401;-83
2023/02/07 00:44:58;;;;;;;32.53;25.58;;;;;;;;;;5049459;28;20365;-83
2023/02/07 00:47:55;;;;;;;;;;;;;;;;;;;;;
2023/02/07 00:53:28;;;;;;;30.40;24.92;;;;;;;;;;5026003;28;20373;-83
2023/02/07 00:56:30;;;;;;;;;;;;;;;;;;;;;
2023/02/07 01:01:46;;;;;;;31.05;24.00;;;;;;;;;;5028283;28;20984;-82
2023/02/07 01:04:22;;;;;;;30.58;23.23;;;;;;;;;;5044732;28;20394;-84
2023/02/07 01:06:50;;;;;;;30.20;23.08;;;;;;;;;;5048349;28;20400;-84
2023/02/07 01:09:17;;;;;;;34.43;25.17;;;;;;;;;;5035498;28;20796;-84
2023/02/07 01:11:43;;;;;;;32.53;24.20;;;;;;;;;;5034265;28;20405;-84
2023/02/07 01:14:38;;;;;;;30.30;23.02;;;;;;;;;;5049033;28;20424;-85
2023/02/07 01:17:05;;;;;;;30.58;24.30;;;;;;;;;;5004384;28;20448;-84
2023/02/07 01:19:31;;;;;;;29.23;23.53;;;;;;;;;;5042660;28;20477;-83
2023/02/07 01:21:58;;;;;;;31.60;23.63;;;;;;;;;;5028622;28;20400;-83
2023/02/07 01:24:24;;;;;;;33.20;24.73;;;;;;;;;;5028853;28;20365;-82
2023/02/07 01:26:50;;;;;;;33.83;25.83;;;;;;;;;;5026387;28;20385;-82
2023/02/07 01:29:16;;;;;;;36.72;27.35;;;;;;;;;;5025398;28;20436;-82
2023/02/07 01:31:42;;;;;;;35.15;26.45;;;;;;;;;;5025289;28;20423;-82
2023/02/07 01:34:11;;;;;;;36.03;27.07;;;;;;;;;;5011176;28;20469;-82
2023/02/07 01:36:37;;;;;;;38.33;27.42;;;;;;;;;;5045804;28;20384;-82
2023/02/07 01:39:03;;;;;;;37.83;27.10;;;;;;;;;;5045420;28;20377;-82
2023/02/07 01:41:29;;;;;;;34.33;25.33;;;;;;;;;;5030679;28;20477;-82
2023/02/07 01:44:07;;;;;;;32.42;24.55;;;;;;;;;;5031128;28;20372;-82
2023/02/07 01:46:34;;;;;;;29.27;23.70;;;;;;;;;;5024925;28;20418;-83
2023/02/07 01:49:09;;;;;;;31.33;24.73;;;;;;;;;;5009969;28;20751;-81
2023/02/07 01:51:36;;;;;;;33.50;24.42;;;;;;;;;;5009871;28;20369;-82
2023/02/07 01:54:04;;;;;;;32.53;24.87;;;;;;;;;;5010906;28;20390;-81
2023/02/07 01:56:31;;;;;;;37.10;27.35;;;;;;;;;;5010716;28;20886;-81
2023/02/07 01:58:57;;;;;;;40.35;27.88;;;;;;;;;;5024701;28;20912;-82
2023/02/07 02:01:24;;;;;;;36.53;27.17;;;;;;;;;;5010401;28;20407;-82
2023/02/07 02:03:52;;;;;;;37.13;26.35;;;;;;;;;;5018668;28;20381;-81
2023/02/07 02:06:18;;;;;;;35.08;26.48;;;;;;;;;;5051535;28;20399;-82
2023/02/07 02:08:45;;;;;;;37.33;27.13;;;;;;;;;;5051474;28;20361;-81
2023/02/07 02:11:14;;;;;;;38.00;26.73;;;;;;;;;;5050901;28;20388;-81
2023/02/07 02:13:45;;;;;;;36.95;25.80;;;;;;;;;;5051449;28;20358;-81
2023/02/07 02:16:11;;;;;;;40.17;27.83;;;;;;;;;;5034025;28;20745;-82
2023/02/07 02:18:52;;;;;;;36.57;26.00;;;;;;;;;;5022899;28;20390;-82
2023/02/07 02:21:18;;;;;;;38.58;27.90;;;;;;;;;;5034614;28;20393;-80
2023/02/07 02:24:04;;;;;;;41.30;28.40;;;;;;;;;;5051029;28;20844;-82
2023/02/07 02:26:30;;;;;;;35.55;27.65;;;;;;;;;;5036558;28;20717;-81
2023/02/07 02:29:08;;;;;;;43.00;29.13;;;;;;;;;;5035658;28;20887;-81
2023/02/07 02:31:40;;;;;;;43.40;30.30;;;;;;;;;;5031037;28;20773;-81
2023/02/07 02:34:09;;;;;;;44.95;30.75;;;;;;;;;;5016294;28;20379;-82
2023/02/07 02:36:54;;;;;;;46.97;33.13;;;;;;;;;;5026523;28;20381;-81
2023/02/07 02:39:28;;;;;;;68.05;38.60;;;;;;;;;;5035660;28;20419;-82
2023/02/07 02:42:01;;;;;;;95.90;45.90;;;;;;;;;;5013180;28;20448;-81
2023/02/07 02:44:48;;;;;;;80.22;46.25;;;;;;;;;;5015830;28;20805;-81
2023/02/07 02:47:15;;;;;;;116.85;55.03;;;;;;;;;;5016172;28;20398;-81
2023/02/07 02:49:43;;;;;;;116.55;59.00;;;;;;;;;;5014061;28;20473;-81
2023/02/07 02:52:09;;;;;;;131.05;63.20;;;;;;;;;;5024562;28;20391;-82
2023/02/07 02:54:36;;;;;;;99.00;55.60;;;;;;;;;;5036031;28;20416;-80
2023/02/07 02:57:05;;;;;;;106.07;56.33;;;;;;;;;;5284505;22;20413;-82
2023/02/07 02:59:46;;;;;;;118.55;55.80;;;;;;;;;;5001907;28;20405;-82
2023/02/07 03:02:18;;;;;;;127.75;62.10;;;;;;;;;;5012471;28;20428;-82
2023/02/07 03:04:47;;;;;;;125.55;60.33;;;;;;;;;;5015848;28;20684;-81
2023/02/07 03:07:32;;;;;;;98.13;52.97;;;;;;;;;;5033720;28;20909;-81
2023/02/07 03:09:58;;;;;;;110.80;57.30;;;;;;;;;;5032447;28;20385;-81
2023/02/07 03:12:34;;;;;;;99.32;54.75;;;;;;;;;;5016380;28;20750;-81
2023/02/07 03:15:03;;;;;;;113.63;58.55;;;;;;;;;;5033713;28;20416;-81
2023/02/07 03:17:39;;;;;;;86.77;48.80;;;;;;;;;;5030203;28;20526;-80
2023/02/07 03:20:18;;;;;;;105.65;53.05;;;;;;;;;;4992661;28;20717;-82
2023/02/07 03:22:46;;;;;;;79.85;47.90;;;;;;;;;;4993327;28;20391;-82
2023/02/07 03:25:13;;;;;;;110.28;52.83;;;;;;;;;;5010296;28;20415;-81
2023/02/07 03:27:40;;;;;;;103.70;56.13;;;;;;;;;;5024718;28;20456;-81
2023/02/07 03:30:08;;;;;;;119.93;58.10;;;;;;;;;;5013049;28;20405;-82
2023/02/07 03:32:37;;;;;;;78.13;50.17;;;;;;;;;;5030411;28;20362;-82
2023/02/07 03:35:10;;;;;;;111.90;59.22;;;;;;;;;;5012179;28;20459;-81
2023/02/07 03:37:46;;;;;;;101.97;60.03;;;;;;;;;;5028264;28;20405;-81
2023/02/07 03:40:12;;;;;;;93.47;59.38;;;;;;;;;;5030345;28;20453;-82
2023/02/07 03:42:41;;;;;;;93.68;58.83;;;;;;;;;;5030345;28;20409;-82
2023/02/07 03:45:10;;;;;;;130.27;63.83;;;;;;;;;;5028925;28;20385;-80
2023/02/07 03:47:36;;;;;;;132.88;63.03;;;;;;;;;;5011400;28;20405;-81
2023/02/07 03:50:02;;;;;;;99.47;60.00;;;;;;;;;;5013565;28;20386;-82
2023/02/07 03:52:28;;;;;;;93.30;57.05;;;;;;;;;;5031962;28;20385;-81
2023/02/07 03:54:54;;;;;;;82.35;53.15;;;;;;;;;;5033381;28;20386;-82
2023/02/07 03:57:20;;;;;;;79.80;53.70;;;;;;;;;;5013107;28;20566;-82
2023/02/07 03:59:46;;;;;;;77.85;52.40;;;;;;;;;;5032104;28;20381;-82
2023/02/07 04:02:12;;;;;;;72.80;51.73;;;;;;;;;;5030498;28;20459;-82
2023/02/07 04:04:39;;;;;;;76.85;51.38;;;;;;;;;;5030101;28;20370;-80
2023/02/07 04:07:05;;;;;;;68.95;48.15;;;;;;;;;;5010283;28;20480;-81
2023/02/07 04:09:31;;;;;;;70.72;46.95;;;;;;;;;;5023454;28;20656;-81
2023/02/07 04:11:57;;;;;;;69.70;45.45;;;;;;;;;;5029356;28;20384;-81
2023/02/07 04:14:23;;;;;;;72.47;45.60;;;;;;;;;;5030126;28;20437;-81
2023/02/07 04:16:50;;;;;;;61.50;42.35;;;;;;;;;;5029459;28;20390;-81
2023/02/07 04:19:17;;;;;;;71.75;45.13;;;;;;;;;;5031471;28;20883;-80
2023/02/07 04:21:43;;;;;;;64.65;43.28;;;;;;;;;;5031732;28;20496;-82
2023/02/07 04:24:09;;;;;;;66.90;45.10;;;;;;;;;;5011189;28;20461;-82
2023/02/07 04:26:35;;;;;;;72.50;46.35;;;;;;;;;;5011463;28;20481;-82
2023/02/07 04:29:01;;;;;;;75.88;47.22;;;;;;;;;;5029485;28;20803;-82
2023/02/07 04:31:27;;;;;;;66.97;44.95;;;;;;;;;;5028989;28;20705;-82
2023/02/07 04:33:53;;;;;;;71.22;45.28;;;;;;;;;;5029050;28;20378;-82
2023/02/07 04:36:19;;;;;;;68.00;44.08;;;;;;;;;;5029297;28;20409;-82
2023/02/07 04:38:45;;;;;;;72.10;46.65;;;;;;;;;;5011448;28;20377;-82
2023/02/07 04:41:11;;;;;;;75.13;48.10;;;;;;;;;;5029037;28;20455;-83
2023/02/07 04:43:37;;;;;;;65.40;44.33;;;;;;;;;;5011164;28;20461;-82
2023/02/07 04:46:05;;;;;;;70.45;45.67;;;;;;;;;;5027332;28;20398;-83
2023/02/07 04:48:31;;;;;;;63.70;44.38;;;;;;;;;;5028947;28;20405;-82
2023/02/07 04:50:57;;;;;;;61.70;43.58;;;;;;;;;;5028881;28;20373;-83
2023/02/07 04:53:24;;;;;;;68.67;45.20;;;;;;;;;;5028722;28;20484;-82
2023/02/07 04:55:51;;;;;;;69.97;45.33;;;;;;;;;;5025875;28;20417;-81
2023/02/07 04:58:17;;;;;;;70.45;46.78;;;;;;;;;;5011118;28;20424;-82
2023/02/07 05:00:43;;;;;;;66.60;44.67;;;;;;;;;;5028845;28;20508;-80
2023/02/07 05:03:09;;;;;;;70.10;45.72;;;;;;;;;;5010894;28;20515;-82
2023/02/07 05:05:39;;;;;;;80.63;50.13;;;;;;;;;;4996421;28;20483;-82
2023/02/07 05:08:05;;;;;;;72.22;47.03;;;;;;;;;;5009113;28;20461;-82
2023/02/07 05:10:31;;;;;;;71.07;45.20;;;;;;;;;;4991659;28;20387;-82
2023/02/07 05:12:57;;;;;;;74.45;49.25;;;;;;;;;;5009511;28;20385;-81
2023/02/07 05:15:24;;;;;;;82.55;49.78;;;;;;;;;;5020734;28;20440;-82
2023/02/07 05:17:51;;;;;;;73.40;46.78;;;;;;;;;;5027980;28;20385;-82
2023/02/07 05:20:17;;;;;;;71.43;44.40;;;;;;;;;;5011586;28;20449;-82
2023/02/07 05:22:43;;;;;;;76.90;48.20;;;;;;;;;;5029447;28;20427;-82
2023/02/07 05:25:09;;;;;;;76.38;45.78;;;;;;;;;;5026538;28;20393;-82
2023/02/07 05:27:35;;;;;;;70.73;44.80;;;;;;;;;;5029114;28;20947;-82
2023/02/07 05:30:02;;;;;;;89.63;51.15;;;;;;;;;;5011504;28;20399;-81
2023/02/07 05:35:12;;;;;;;76.43;46.95;;;;;;;;;;5028492;28;20488;-82
2023/02/07 05:37:39;;;;;;;79.03;47.65;;;;;;;;;;5028190;28;20395;-81
2023/02/07 05:40:05;;;;;;;90.05;52.72;;;;;;;;;;5028236;28;20362;-81
2023/02/07 05:42:31;;;;;;;77.00;48.10;;;;;;;;;;5028228;28;20441;-81
2023/02/07 05:44:57;;;;;;;86.00;50.95;;;;;;;;;;5010890;28;20405;-81
2023/02/07 05:47:23;;;;;;;110.38;56.22;;;;;;;;;;5029287;28;20369;-81
2023/02/07 05:49:49;;;;;;;89.97;52.58;;;;;;;;;;5028341;28;20369;-80
2023/02/07 05:52:15;;;;;;;87.45;52.03;;;;;;;;;;5028221;28;20377;-81
2023/02/07 05:54:41;;;;;;;85.20;50.78;;;;;;;;;;5028522;28;20405;-81
2023/02/07 05:57:08;;;;;;;93.60;55.05;;;;;;;;;;5028420;28;20393;-81
2023/02/07 05:59:34;;;;;;;94.38;54.78;;;;;;;;;;5028966;28;20385;-82
2023/02/07 06:02:00;;;;;;;86.95;52.22;;;;;;;;;;5029589;28;20858;-82
2023/02/07 06:04:26;;;;;;;78.97;48.88;;;;;;;;;;5029754;28;20374;-82
2023/02/07 06:06:52;;;;;;;82.30;50.33;;;;;;;;;;5016493;28;20714;-81
2023/02/07 06:09:18;;;;;;;82.47;52.15;;;;;;;;;;5000392;28;20388;-82
2023/02/07 06:11:45;;;;;;;75.70;48.80;;;;;;;;;;4996710;28;20933;-82
2023/02/07 06:14:11;;;;;;;80.10;49.40;;;;;;;;;;5024748;28;20396;-82
2023/02/07 06:16:37;;;;;;;76.93;48.63;;;;;;;;;;4991602;28;20465;-81
2023/02/07 06:19:03;;;;;;;78.03;47.42;;;;;;;;;;5023541;28;20411;-83
2023/02/07 06:21:29;;;;;;;77.55;48.80;;;;;;;;;;5008489;28;20765;-82
2023/02/07 06:23:55;;;;;;;77.85;49.42;;;;;;;;;;5004528;28;20432;-82
2023/02/07 06:26:22;;;;;;;79.80;49.20;;;;;;;;;;4995039;28;20396;-83
2023/02/07 06:28:48;;;;;;;83.68;51.35;;;;;;;;;;5020305;28;20413;-83
2023/02/07 06:31:14;;;;;;;82.75;50.53;;;;;;;;;;5006753;28;20431;-82
2023/02/07 06:33:40;;;;;;;82.93;51.67;;;;;;;;;;5029253;28;20373;-83
2023/02/07 06:36:06;;;;;;;75.43;46.63;;;;;;;;;;5011886;28;20785;-82
2023/02/07 06:38:32;;;;;;;83.83;49.83;;;;;;;;;;5028028;28;20414;-85
2023/02/07 06:40:58;;;;;;;82.28;50.50;;;;;;;;;;5009978;28;20409;-83
2023/02/07 06:43:24;;;;;;;87.00;50.78;;;;;;;;;;5010286;28;20374;-82
2023/02/07 06:45:50;;;;;;;85.47;51.58;;;;;;;;;;5028148;28;20491;-83
2023/02/07 06:48:16;;;;;;;83.63;51.00;;;;;;;;;;5008385;28;20755;-82
2023/02/07 06:50:42;;;;;;;87.28;52.53;;;;;;;;;;5027973;28;20381;-82
2023/02/07 06:53:08;;;;;;;110.85;57.50;;;;;;;;;;5030787;28;20377;-83
2023/02/07 06:55:39;;;;;;;97.93;55.78;;;;;;;;;;5031735;28;20487;-83
2023/02/07 06:58:06;;;;;;;94.05;55.80;;;;;;;;;;5031168;28;20388;-84
2023/02/07 07:00:32;;;;;;;113.75;65.85;;;;;;;;;;5014098;28;20396;-83
2023/02/07 07:02:59;;;;;;;101.05;62.97;;;;;;;;;;5013548;28;20439;-83
2023/02/07 07:05:25;;;;;;;112.43;63.88;;;;;;;;;;5013575;28;20397;-85
2023/02/07 07:07:51;;;;;;;102.47;62.25;;;;;;;;;;5030949;28;20388;-83
2023/02/07 07:10:17;;;;;;;103.30;60.07;;;;;;;;;;5031279;28;20414;-84
2023/02/07 07:12:43;;;;;;;113.07;62.35;;;;;;;;;;5015023;28;20373;-80
2023/02/07 07:15:09;;;;;;;92.68;56.83;;;;;;;;;;5032643;28;20448;-81
2023/02/07 07:17:35;;;;;;;104.03;59.22;;;;;;;;;;5029604;28;20433;-82
2023/02/07 07:20:01;;;;;;;111.55;60.95;;;;;;;;;;5023759;28;20434;-82
2023/02/07 07:22:28;;;;;;;112.30;61.27;;;;;;;;;;5018111;28;20507;-81
2023/02/07 07:24:54;;;;;;;115.90;63.05;;;;;;;;;;5022531;28;20392;-82
2023/02/07 07:27:20;;;;;;;108.22;62.42;;;;;;;;;;5031036;28;20377;-81
2023/02/07 07:29:46;;;;;;;125.32;66.72;;;;;;;;;;5031852;28;20374;-82
2023/02/07 07:32:15;;;;;;;114.97;62.90;;;;;;;;;;5038265;28;20388;-81
2023/02/07 07:34:41;;;;;;;121.93;65.83;;;;;;;;;;5031838;28;20376;-80
2023/02/07 07:37:07;;;;;;;110.63;63.42;;;;;;;;;;5049117;28;21004;-80
2023/02/07 07:39:33;;;;;;;114.60;63.83;;;;;;;;;;5049255;28;20375;-81
2023/02/07 07:42:00;;;;;;;128.32;66.82;;;;;;;;;;5019952;28;20524;-81
2023/02/07 07:44:26;;;;;;;116.30;65.32;;;;;;;;;;5030460;28;20385;-82
2023/02/07 07:57:21;;;;;;;;;;;;;;;;;;;;;
2023/02/07 07:59:47;;;;;;;88.63;56.65;;;;;;;;;;4947754;29;20388;-82
2023/02/07 08:02:23;;;;;;;90.45;56.53;;;;;;;;;;5012741;28;20413;-82
2023/02/07 08:04:50;;;;;;;92.88;59.22;;;;;;;;;;5026872;28;20381;-82
2023/02/07 08:08:00;;;;;;;;;;;;;;;;;;;;;
2023/02/07 08:26:25;;;;;;;98.05;67.68;;;;;;;;;;4819303;29;20407;-82
2023/02/07 08:29:07;;;;;;;91.35;62.88;;;;;;;;;;4846136;29;20525;-81
2023/02/07 08:31:43;;;;;;;87.72;60.78;;;;;;;;;;4900626;29;21104;-80
2023/02/07 08:40:48;;;;;;;66.18;49.28;;;;;;;;;;4960059;28;20460;-81
2023/02/07 08:43:16;;;;;;;66.90;48.95;;;;;;;;;;4970170;28;20375;-80
2023/02/07 08:48:57;;;;;;;59.08;43.95;;;;;;;;;;5019968;28;20377;-80
2023/02/07 08:51:23;;;;;;;48.70;38.25;;;;;;;;;;5025675;28;20465;-79
2023/02/07 08:53:51;;;;;;;41.65;33.80;;;;;;;;;;5009397;28;20380;-80
2023/02/07 08:56:17;;;;;;;40.28;34.20;;;;;;;;;;5009047;28;21070;-80
2023/02/07 08:58:46;;;;;;;45.55;35.55;;;;;;;;;;5028752;28;20421;-80
2023/02/07 09:01:12;;;;;;;43.05;35.80;;;;;;;;;;5013090;28;20393;-80
2023/02/07 09:03:39;;;;;;;40.47;33.40;;;;;;;;;;5030326;28;20386;-80
2023/02/07 09:06:05;;;;;;;40.85;32.92;;;;;;;;;;5030401;28;20441;-80
2023/02/07 09:08:34;;;;;;;37.97;31.52;;;;;;;;;;5027139;28;20527;-81
2023/02/07 09:11:03;;;;;;;39.75;32.63;;;;;;;;;;5006564;28;20409;-80
2023/02/07 09:13:30;;;;;;;38.97;33.05;;;;;;;;;;5001951;28;20430;-80
2023/02/07 09:15:57;;;;;;;41.85;35.40;;;;;;;;;;5020287;28;20398;-82
2023/02/07 09:18:24;;;;;;;39.47;32.70;;;;;;;;;;5029211;28;20897;-81
2023/02/07 09:20:50;;;;;;;37.90;31.73;;;;;;;;;;5012374;28;20401;-81
2023/02/07 09:23:16;;;;;;;34.90;29.23;;;;;;;;;;5030610;28;20450;-81
2023/02/07 09:25:42;;;;;;;30.40;26.65;;;;;;;;;;5030298;28;20365;-82
2023/02/07 09:28:08;;;;;;;31.20;26.80;;;;;;;;;;5029186;28;20519;-81
2023/02/07 09:33:24;;;;;;;28.55;24.83;;;;;;;;;;5025070;28;20439;-81
2023/02/07 09:35:53;;;;;;;29.08;25.08;;;;;;;;;;5011324;28;20361;-81
2023/02/07 09:38:24;;;;;;;27.80;24.30;;;;;;;;;;5006286;28;20363;-80
2023/02/07 09:41:00;;;;;;;28.65;24.30;;;;;;;;;;4992096;28;20865;-81
2023/02/07 09:43:31;;;;;;;26.73;22.73;;;;;;;;;;5019155;28;20385;-81
2023/02/07 09:45:58;;;;;;;26.25;22.60;;;;;;;;;;5012647;28;20732;-81
2023/02/07 09:48:46;;;;;;;28.23;23.67;;;;;;;;;;5029781;28;20404;-81
2023/02/07 09:51:12;;;;;;;29.33;23.05;;;;;;;;;;5030035;28;20376;-80
2023/02/07 09:53:47;;;;;;;26.45;22.42;;;;;;;;;;5029735;28;20852;-80
2023/02/07 09:56:17;;;;;;;24.13;21.33;;;;;;;;;;5029688;28;20479;-81
2023/02/07 09:58:58;;;;;;;26.92;22.70;;;;;;;;;;5030050;28;20381;-79
2023/02/07 10:01:26;;;;;;;24.27;21.30;;;;;;;;;;5029648;28;20401;-80
2023/02/07 10:04:15;;;;;;;25.02;22.35;;;;;;;;;;5030148;28;20434;-80
2023/02/07 10:06:44;;;;;;;27.23;23.05;;;;;;;;;;5003613;28;20501;-80
2023/02/07 10:09:14;;;;;;;26.75;22.38;;;;;;;;;;4992487;28;20845;-80
2023/02/07 10:11:53;;;;;;;25.02;21.23;;;;;;;;;;5010053;28;20450;-80
2023/02/07 10:14:38;;;;;;;26.40;22.67;;;;;;;;;;5010712;28;20437;-81
2023/02/07 10:17:23;;;;;;;25.83;22.35;;;;;;;;;;5009343;28;20389;-81
2023/02/07 10:19:59;;;;;;;26.23;21.45;;;;;;;;;;5010372;28;20406;-81
2023/02/07 10:22:37;;;;;;;26.55;22.60;;;;;;;;;;4992417;28;20391;-81
2023/02/07 10:25:03;;;;;;;26.33;21.65;;;;;;;;;;5010132;28;20367;-81
2023/02/07 10:27:36;;;;;;;25.02;20.83;;;;;;;;;;5013092;28;20371;-81
2023/02/07 10:30:14;;;;;;;25.23;21.65;;;;;;;;;;4996574;28;20371;-80
2023/02/07 10:32:42;;;;;;;24.35;20.80;;;;;;;;;;5013154;28;20386;-81
2023/02/07 10:35:17;;;;;;;24.27;20.70;;;;;;;;;;5014493;28;20367;-80
2023/02/07 10:37:45;;;;;;;27.83;21.88;;;;;;;;;;5013318;28;20363;-81
2023/02/07 10:40:11;;;;;;;25.33;21.07;;;;;;;;;;4996473;28;20375;-80
2023/02/07 10:42:37;;;;;;;26.48;21.75;;;;;;;;;;5013910;28;20401;-81
2023/02/07 10:45:04;;;;;;;26.15;22.15;;;;;;;;;;5014831;28;20372;-82
2023/02/07 10:47:34;;;;;;;25.15;21.85;;;;;;;;;;5015769;28;20495;-81
2023/02/07 10:50:09;;;;;;;27.10;23.02;;;;;;;;;;4999163;28;20422;-83
2023/02/07 10:52:43;;;;;;;25.75;22.13;;;;;;;;;;5014327;28;20371;-81
2023/02/07 10:55:10;;;;;;;24.35;20.75;;;;;;;;;;5014528;28;20375;-81
2023/02/07 10:57:37;;;;;;;25.77;21.50;;;;;;;;;;5008851;28;20379;-81
2023/02/07 11:00:03;;;;;;;26.42;22.20;;;;;;;;;;5013892;28;20896;-81
2023/02/07 11:02:32;;;;;;;25.00;21.52;;;;;;;;;;5013517;28;20948;-80
2023/02/07 11:05:19;;;;;;;25.35;21.48;;;;;;;;;;5018735;28;20405;-80
2023/02/07 11:08:04;;;;;;;28.15;22.83;;;;;;;;;;5025636;28;20750;-80
2023/02/07 11:10:38;;;;;;;27.65;22.77;;;;;;;;;;5043595;28;20371;-81
2023/02/07 11:13:10;;;;;;;26.35;22.13;;;;;;;;;;5033694;28;20371;-82
2023/02/07 11:15:38;;;;;;;25.17;21.53;;;;;;;;;;5033233;28;20380;-81
2023/02/07 11:18:05;;;;;;;26.55;20.60;;;;;;;;;;5033319;28;20855;-82
2023/02/07 11:20:36;;;;;;;26.00;21.15;;;;;;;;;;5032630;28;20378;-81
2023/02/07 11:23:05;;;;;;;26.08;21.88;;;;;;;;;;5015415;28;20745;-81
2023/02/07 11:25:45;;;;;;;28.42;22.17;;;;;;;;;;5032659;28;20358;-81
2023/02/07 11:28:26;;;;;;;26.23;22.25;;;;;;;;;;4994007;28;20402;-81
2023/02/07 11:31:10;;;;;;;23.15;19.85;;;;;;;;;;5004378;28;20997;-81
2023/02/07 11:33:36;;;;;;;24.98;21.30;;;;;;;;;;5012646;28;20482;-81
2023/02/07 11:36:08;;;;;;;24.60;21.55;;;;;;;;;;5032151;28;20389;-82
2023/02/07 11:38:58;;;;;;;26.23;21.95;;;;;;;;;;5030666;28;20400;-81
2023/02/07 11:41:31;;;;;;;27.30;21.75;;;;;;;;;;4950147;28;20833;-81
2023/02/07 11:44:14;;;;;;;28.45;23.65;;;;;;;;;;4994151;28;20375;-82
2023/02/07 11:46:42;;;;;;;24.52;21.55;;;;;;;;;;5012914;28;20461;-81
2023/02/07 11:49:22;;;;;;;28.08;22.52;;;;;;;;;;4995016;28;20376;-81
2023/02/07 11:51:53;;;;;;;29.87;23.37;;;;;;;;;;5027414;28;20475;-81
2023/02/07 11:54:20;;;;;;;28.40;22.15;;;;;;;;;;5026719;28;20397;-82
2023/02/07 11:57:00;;;;;;;28.05;22.83;;;;;;;;;;5031426;28;20365;-81
2023/02/07 11:59:32;;;;;;;24.63;20.90;;;;;;;;;;5032257;28;20382;-81
2023/02/07 12:02:09;;;;;;;27.52;21.67;;;;;;;;;;5032193;28;20397;-81
2023/02/07 12:04:37;;;;;;;26.75;21.98;;;;;;;;;;5030099;28;20501;-81
2023/02/07 12:07:05;;;;;;;27.58;21.88;;;;;;;;;;5014031;28;20440;-81
2023/02/07 12:09:52;;;;;;;26.75;21.80;;;;;;;;;;5014003;28;20680;-82
2023/02/07 12:12:27;;;;;;;24.13;20.08;;;;;;;;;;5015297;28;20373;-81
2023/02/07 12:14:54;;;;;;;24.47;19.80;;;;;;;;;;5030082;28;20472;-81
2023/02/07 12:17:33;;;;;;;24.48;19.63;;;;;;;;;;5031864;28;20361;-81
2023/02/07 12:20:10;;;;;;;26.52;19.05;;;;;;;;;;5013803;28;20823;-81
2023/02/07 12:22:45;;;;;;;25.77;19.70;;;;;;;;;;5030890;28;20484;-81
2023/02/07 12:25:21;;;;;;;23.83;18.33;;;;;;;;;;5031379;28;20361;-81
2023/02/07 12:27:49;;;;;;;22.53;18.07;;;;;;;;;;5023501;28;20431;-82
2023/02/07 12:30:21;;;;;;;23.20;18.90;;;;;;;;;;5027609;28;20465;-82
2023/02/07 12:33:06;;;;;;;25.05;19.15;;;;;;;;;;5030988;28;20856;-82
2023/02/07 12:35:32;;;;;;;24.50;18.38;;;;;;;;;;5031176;28;20392;-82
2023/02/07 12:38:12;;;;;;;24.25;19.67;;;;;;;;;;5031271;28;20376;-82
2023/02/07 12:40:41;;;;;;;22.55;18.92;;;;;;;;;;5010499;28;20887;-82
2023/02/07 12:43:13;;;;;;;22.33;18.58;;;;;;;;;;5035462;28;21157;-82
2023/02/07 12:45:43;;;;;;;24.58;20.23;;;;;;;;;;5010995;28;20469;-81
2023/02/07 12:48:23;;;;;;;23.77;19.25;;;;;;;;;;5011251;28;20442;-82
2023/02/07 12:50:58;;;;;;;22.55;17.27;;;;;;;;;;5007463;28;20835;-82
2023/02/07 12:53:27;;;;;;;27.40;22.25;;;;;;;;;;5023651;28;20374;-82
2023/02/07 12:56:15;;;;;;;28.15;21.33;;;;;;;;;;5030762;28;20427;-82
2023/02/07 12:58:45;;;;;;;25.45;21.02;;;;;;;;;;5030805;28;20396;-82
2023/02/07 13:01:32;;;;;;;23.20;19.88;;;;;;;;;;5031017;28;20397;-81
2023/02/07 13:04:10;;;;;;;24.80;20.48;;;;;;;;;;5031084;28;20364;-81
2023/02/07 13:06:38;;;;;;;23.08;19.38;;;;;;;;;;5014142;28;20474;-81
2023/02/07 13:09:14;;;;;;;25.77;21.02;;;;;;;;;;4993305;28;20371;-81
2023/02/07 13:11:43;;;;;;;24.80;19.80;;;;;;;;;;5023854;28;20847;-81
2023/02/07 13:14:14;;;;;;;25.42;20.15;;;;;;;;;;5030569;28;20373;-81
2023/02/07 13:16:43;;;;;;;27.05;18.98;;;;;;;;;;5007376;28;20390;-80
2023/02/07 13:19:21;;;;;;;26.15;20.95;;;;;;;;;;5010870;28;20458;-81
2023/02/07 13:21:52;;;;;;;22.38;17.90;;;;;;;;;;5010237;28;20885;-80
2023/02/07 13:24:20;;;;;;;20.20;17.23;;;;;;;;;;5011075;28;20825;-81
2023/02/07 13:26:55;;;;;;;21.45;17.90;;;;;;;;;;5010335;28;20406;-81
2023/02/07 13:29:22;;;;;;;22.05;18.17;;;;;;;;;;5011101;28;20417;-81
2023/02/07 13:31:56;;;;;;;23.57;18.70;;;;;;;;;;5010678;28;20371;-80
2023/02/07 13:34:24;;;;;;;22.63;18.42;;;;;;;;;;5010619;28;20865;-81
2023/02/07 13:36:51;;;;;;;22.40;19.05;;;;;;;;;;5010114;28;20454;-83
2023/02/07 13:39:17;;;;;;;23.07;19.10;;;;;;;;;;5010993;28;20379;-82
2023/02/07 13:41:48;;;;;;;25.70;20.38;;;;;;;;;;5010829;28;20510;-81
2023/02/07 13:44:29;;;;;;;25.05;19.80;;;;;;;;;;5010891;28;20434;-80
2023/02/07 13:47:02;;;;;;;23.80;18.50;;;;;;;;;;5010058;28;20389;-81
2023/02/07 13:49:31;;;;;;;21.38;18.15;;;;;;;;;;5010644;28;20370;-81
2023/02/07 13:52:00;;;;;;;21.77;18.60;;;;;;;;;;5010821;28;20383;-81
2023/02/07 13:54:27;;;;;;;20.48;17.63;;;;;;;;;;5008952;28;20422;-81
2023/02/07 14:00:04;;;;;;;23.80;18.10;;;;;;;;;;5010664;28;20767;-80
2023/02/07 14:02:31;;;;;;;21.02;17.13;;;;;;;;;;5009110;28;20391;-81
2023/02/07 14:04:58;;;;;;;20.27;16.80;;;;;;;;;;5014094;28;20788;-81
2023/02/07 14:07:28;;;;;;;21.27;17.13;;;;;;;;;;5029826;28;20366;-80
2023/02/07 14:09:58;;;;;;;19.95;16.67;;;;;;;;;;5030357;28;20376;-80
2023/02/07 14:12:28;;;;;;;21.10;16.90;;;;;;;;;;5030301;28;20377;-80
2023/02/07 14:14:55;;;;;;;21.15;16.70;;;;;;;;;;5027728;28;20391;-79
2023/02/07 14:17:27;;;;;;;21.30;17.10;;;;;;;;;;5010778;28;20389;-80
2023/02/07 14:19:54;;;;;;;21.73;17.20;;;;;;;;;;5030311;28;20373;-82
2023/02/07 14:22:24;;;;;;;18.50;16.33;;;;;;;;;;5029572;28;20467;-82
2023/02/07 14:24:50;;;;;;;21.00;16.83;;;;;;;;;;5019001;28;20367;-82
2023/02/07 14:27:25;;;;;;;21.53;17.73;;;;;;;;;;5023480;28;20654;-81
2023/02/07 14:29:55;;;;;;;19.38;16.40;;;;;;;;;;5029862;28;20361;-80
2023/02/07 14:32:21;;;;;;;19.05;15.60;;;;;;;;;;5029646;28;20389;-81
2023/02/07 14:35:03;;;;;;;22.27;17.80;;;;;;;;;;5028974;28;20377;-80
2023/02/07 14:37:38;;;;;;;20.80;17.70;;;;;;;;;;5031451;28;20431;-81
2023/02/07 14:40:08;;;;;;;19.95;17.80;;;;;;;;;;5031002;28;20383;-81
2023/02/07 14:42:35;;;;;;;21.55;17.77;;;;;;;;;;5047388;28;20563;-81
2023/02/07 14:45:02;;;;;;;21.17;18.38;;;;;;;;;;5030234;28;20361;-82
2023/02/07 14:47:30;;;;;;;20.23;17.17;;;;;;;;;;5029632;28;20380;-81
2023/02/07 14:49:57;;;;;;;22.13;17.70;;;;;;;;;;5030025;28;20397;-81
2023/02/07 14:52:25;;;;;;;21.90;17.73;;;;;;;;;;5030002;28;20415;-81
2023/02/07 14:55:03;;;;;;;21.80;17.85;;;;;;;;;;5029666;28;20412;-81
2023/02/07 14:57:59;;;;;;;22.63;17.40;;;;;;;;;;5029416;28;20402;-81
2023/02/07 15:00:38;;;;;;;20.80;16.85;;;;;;;;;;5012587;28;20477;-81
2023/02/07 15:03:12;;;;;;;21.33;18.23;;;;;;;;;;5010949;28;20574;-81
2023/02/07 15:05:39;;;;;;;22.95;17.77;;;;;;;;;;5028472;28;20536;-81
2023/02/07 15:08:08;;;;;;;20.98;17.60;;;;;;;;;;5026448;28;20448;-81
2023/02/07 15:10:40;;;;;;;22.33;18.67;;;;;;;;;;4997985;28;20700;-82
2023/02/07 15:13:16;;;;;;;21.90;17.60;;;;;;;;;;5027527;28;20474;-83
2023/02/07 15:16:00;;;;;;;20.30;16.35;;;;;;;;;;5031619;28;20377;-82
2023/02/07 15:18:28;;;;;;;20.02;16.35;;;;;;;;;;5029578;28;20463;-82
2023/02/07 15:20:55;;;;;;;18.95;16.08;;;;;;;;;;5031881;28;20377;-82
2023/02/07 15:23:22;;;;;;;18.73;16.20;;;;;;;;;;5030842;28;20812;-82
2023/02/07 15:25:48;;;;;;;18.93;15.87;;;;;;;;;;5032174;28;20841;-82
2023/02/07 15:28:26;;;;;;;20.60;15.95;;;;;;;;;;5031443;28;20365;-82
2023/02/07 15:30:56;;;;;;;20.40;17.08;;;;;;;;;;5032352;28;20361;-81
2023/02/07 15:33:23;;;;;;;20.77;17.60;;;;;;;;;;5007180;28;20398;-81
2023/02/07 15:35:51;;;;;;;20.17;17.27;;;;;;;;;;5014689;28;20385;-81
2023/02/07 15:38:22;;;;;;;22.15;17.88;;;;;;;;;;5028149;28;20419;-80
2023/02/07 15:40:49;;;;;;;20.85;17.40;;;;;;;;;;5029153;28;20428;-81
2023/02/07 15:43:28;;;;;;;23.20;18.33;;;;;;;;;;5032646;28;20385;-81
2023/02/07 15:45:59;;;;;;;23.90;18.55;;;;;;;;;;5032581;28;20383;-81
2023/02/07 15:48:25;;;;;;;21.20;17.25;;;;;;;;;;5032275;28;20415;-81
2023/02/07 15:50:53;;;;;;;23.13;17.73;;;;;;;;;;5030673;28;20389;-81
2023/02/07 15:53:21;;;;;;;20.85;18.15;;;;;;;;;;5032555;28;20366;-81